METAR Data
IDs: Format: Raw Decoded Include TAF

Data at: 0127 UTC 06 Dec 2019

KVEL 060053Z AUTO 25004KT 10SM OVC070 02/01 A3020 RMK AO2 SLP241 T00220006
KVEL 052353Z AUTO 33003KT 10SM OVC075 03/01 A3017 RMK AO2 SLP228 T00280006 10050 20006 51021
KVEL 052253Z AUTO 35003KT 10SM BKN060 OVC070 03/01 A3016 RMK AO2 SLP224 T00330006
KVEL 052226Z AUTO 36004KT 10SM SCT028 OVC070 04/01 A3015 RMK AO2 T00390006
KVEL 052153Z AUTO 00000KT 10SM BKN029 OVC070 04/01 A3013 RMK AO2 SLP212 T00390006
KVEL 052126Z AUTO 00000KT 10SM BKN029 OVC070 04/01 A3011 RMK AO2 T00390006
KVEL 052101Z AUTO 00000KT 10SM SCT025 OVC030 04/01 A3010 RMK AO2 T00440011
KVEL 052053Z AUTO 00000KT 10SM OVC028 05/01 A3010 RMK AO2 SLP200 T00500011 53005
KVEL 052031Z AUTO 00000KT 10SM BKN026 BKN065 04/01 A3010 RMK AO2 T00390006
KVEL 051953Z AUTO 00000KT 10SM SCT005 03/01 A3009 RMK AO2 SLP200 T00280011
KVEL 051951Z AUTO 00000KT 10SM SCT005 02/01 A3009 RMK AO2
KVEL 051934Z AUTO 00000KT 10SM BKN005 02/01 A3009 RMK AO2 CIG 003V007 T00220011
KVEL 051925Z AUTO 00000KT 10SM SCT003 SCT014 02/01 A3008 RMK AO2 T00220011
KVEL 051901Z AUTO 00000KT 5SM BR BKN002 OVC014 02/01 A3009 RMK AO2 T00220011
KVEL 051853Z AUTO 00000KT 2 1/2SM BR OVC002 02/01 A3008 RMK AO2 VIS 1 3/4V4 SLP197 T00170011
KVEL 051845Z AUTO 00000KT 1 3/4SM BR OVC002 02/01 A3008 RMK AO2 T00170006
KVEL 051753Z AUTO 00000KT 1/2SM FG VV004 01/00 A3008 RMK AO2 SLP202 60001 T00060000 10006 20000 51027
KVEL 051653Z AUTO 00000KT 1/4SM FG VV002 00/M01 A3006 RMK AO2 SLP196 T00001006
KVEL 051553Z AUTO 00000KT 1/4SM FG VV002 00/M01 A3002 RMK AO2 SLP183 T00001006
KVEL 051453Z AUTO 00000KT 1/4SM FG VV002 00/M01 A2999 RMK AO2 SLP170 60001 T00001011 53020
KVEL 051421Z AUTO 09003KT 3/4SM BR BKN001 OVC009 00/M01 A2998 RMK AO2 T00001011
KVEL 051415Z AUTO 05003KT 1 1/2SM BR FEW001 OVC009 01/M01 A2998 RMK AO2 T00061011
KVEL 051411Z AUTO 05003KT 3SM BR OVC009 01/M01 A2997 RMK AO2 T00061011
KVEL 051353Z AUTO 13003KT 3SM BR OVC012 01/M01 A2997 RMK AO2 SNE06 SLP160 P0000 T00061011
KVEL 051312Z AUTO 00000KT 3SM BR FEW005 OVC011 01/M01 A2995 RMK AO2 SNE06 P0000 T00061011
KVEL 051258Z AUTO 00000KT 2SM -SN BR SCT005 OVC011 01/M01 A2995 RMK AO2 P0000 T00061011
KVEL 051253Z AUTO 00000KT 1 3/4SM -SN BR BKN005 OVC009 00/M01 A2994 RMK AO2 SLP152 P0001 T00001011
KVEL 051228Z AUTO 1 1/4SM -SN BR OVC006 00/M02 A2993 RMK AO2 P0001 T00001017
KVEL 051219Z AUTO 1 1/4SM -SN BR BKN004 OVC008 00/M02 A2993 RMK AO2 P0000 T00001017
KVEL 051212Z AUTO 1SM -SN BR SCT004 OVC008 00/M02 A2993 RMK AO2 P0000 T00001017
KVEL 051153Z AUTO 1 1/4SM -SN BR SCT005 OVC010 01/M01 A2992 RMK AO2 SLP140 P0003 60025 70025 T00061011 10022 21006 53001
KVEL 051053Z AUTO 26003KT 1 1/4SM -SN BR BKN008 OVC025 00/M01 A2991 RMK AO2 SLP132 P0003 T00001011
KVEL 051046Z AUTO 00000KT 1 1/2SM -SN BR BKN008 OVC026 00/M01 A2991 RMK AO2 P0002 T00001011
KVEL 051042Z AUTO 00000KT 2SM -SN BR BKN008 BKN014 OVC026 00/M01 A2992 RMK AO2 P0002 T00001011
KVEL 051022Z AUTO 2 1/2SM -SN BR SCT009 OVC026 00/M02 A2992 RMK AO2 P0001 T00001017
KVEL 051015Z AUTO 1 3/4SM -SN BR FEW009 SCT021 OVC026 00/M01 A2992 RMK AO2 P0001 T00001011
KVEL 050953Z AUTO 00000KT 1 1/4SM -SN BR OVC023 00/M02 A2992 RMK AO2 SLP133 P0004 T00001017
KVEL 050925Z AUTO 28003KT 1 1/4SM -SN BR SCT006 OVC022 00/M02 A2993 RMK AO2 P0002 T00001017
KVEL 050906Z AUTO 00000KT 1 1/4SM -SN BR FEW005 BKN014 OVC023 00/M02 A2992 RMK AO2 P0001 T00001017
KVEL 050853Z AUTO 30003KT 1SM -SN BR OVC013 M01/M02 A2992 RMK AO2 SLP136 P0006 60015 T10061022 58008
KVEL 050824Z AUTO 00000KT 1 1/4SM -SN BR SCT005 OVC011 M01/M02 A2992 RMK AO2 P0003 T10061022
KVEL 050816Z AUTO 00000KT 1SM -SN BR SCT005 OVC009 M01/M02 A2992 RMK AO2 P0003 T10061022
KVEL 050753Z AUTO 00000KT 1SM -SN BR FEW006 BKN010 OVC018 M01/M02 A2993 RMK AO2 SLP139 P0008 T10061022
KVEL 050744Z AUTO 06003KT 1SM -SN BR SCT005 OVC011 M01/M02 A2993 RMK AO2 P0007 T10061022
KVEL 050735Z AUTO 06004KT 1SM -SN BR BKN009 OVC012 M01/M02 A2993 RMK AO2 P0006 T10061022
KVEL 050717Z AUTO 06004KT 1 1/4SM -SN BR FEW005 SCT010 OVC014 M01/M02 A2994 RMK AO2 P0004 T10061022
KVEL 050659Z AUTO 05004KT 1 1/2SM -SN BR BKN017 OVC035 01/M01 A2994 RMK AO2 P0001 T00061011
KVEL 050653Z AUTO 00000KT 2 1/2SM -SN BR BKN021 OVC035 01/M01 A2995 RMK AO2 UPB31E35SNB35 SLP144 P0001 T00111011 400671050
KVEL 050553Z AUTO 10SM SCT070 OVC085 01/M03 A2995 RMK AO2 SLP147 T00061028 10033 21011 57009
KVEL 050453Z AUTO 29003KT 10SM SCT110 00/M03 A2996 RMK AO2 SLP156 T00001033
KVEL 050353Z AUTO 26004KT 10SM FEW100 M01/M04 A2997 RMK AO2 SLP167 T10061039
KVEL 050253Z AUTO 00000KT 10SM FEW120 01/M03 A2998 RMK AO2 SLP176 T00061033 56009
KVEL 050153Z AUTO 26003KT 10SM CLR 00/M03 A2999 RMK AO2 SLP179 T00001033
KVEL 050053Z AUTO 00000KT 10SM FEW110 01/M03 A3000 RMK AO2 SLP178 T00111033
KVEL 042353Z AUTO 21003KT 10SM CLR 03/M03 A3001 RMK AO2 SLP179 T00281033 10067 20028 56007
KVEL 042253Z AUTO 11003KT 10SM CLR 06/M03 A3002 RMK AO2 SLP173 T00561033
KVEL 042153Z AUTO 00000KT 10SM CLR 06/M03 A3003 RMK AO2 SLP177 T00611033
KVEL 042053Z AUTO 15003KT 10SM CLR 05/M03 A3004 RMK AO2 SLP186 T00501033 58030
KVEL 041953Z AUTO 00000KT 10SM CLR 04/M03 A3007 RMK AO2 SLP197 T00441033
KVEL 041853Z AUTO 08004KT 10SM CLR 04/M03 A3012 RMK AO2 SLP216 T00391033
KVEL 041753Z AUTO 10005KT 10SM CLR 03/M03 A3014 RMK AO2 SLP227 T00331033 10033 21039 57006
KVEL 041653Z AUTO 00000KT 10SM OVC110 02/M04 A3015 RMK AO2 SLP233 T00171039
KVEL 041553Z AUTO 00000KT 10SM CLR M01/M04 A3015 RMK AO2 SLP238 T10111039
KVEL 041453Z AUTO 35005KT 10SM CLR M04/M06 A3016 RMK AO2 SLP247 T10391061 56004
KVEL 041353Z AUTO 00000KT 10SM CLR M03/M06 A3017 RMK AO2 SLP246 T10331056